Time;durP1;ratioP1;P1;durP2;ratioP2;P2;SDS_P1;SDS_P2;PMS_P1;PMS_P2;Temp;Humidity;BMP_temperature;BMP_pressure;BME280_temperature;BME280_humidity;BME280_pressure;Samples;Min_cycle;Max_cycle;Signal;HPM_P1;HPM_P2
2022/03/22 00:00:55;;;;;;;20.52;15.82;;;14.30;54.40;;;;;;5097348;28;20058;-71
2022/03/22 00:03:24;;;;;;;18.50;14.73;;;14.40;54.60;;;;;;5097199;28;20116;-72
2022/03/22 00:05:51;;;;;;;18.60;15.05;;;14.30;54.60;;;;;;5079512;28;20048;-71
2022/03/22 00:08:17;;;;;;;18.27;14.40;;;14.30;54.70;;;;;;5097671;28;20048;-71
2022/03/22 00:10:44;;;;;;;19.92;14.85;;;14.30;54.70;;;;;;5097056;28;20047;-70
2022/03/22 00:13:10;;;;;;;20.15;15.13;;;14.40;54.70;;;;;;5097959;28;20055;-72
2022/03/22 00:15:36;;;;;;;19.55;15.20;;;14.40;54.70;;;;;;5097897;28;20048;-71
2022/03/22 00:18:03;;;;;;;18.48;14.63;;;14.40;54.70;;;;;;5080130;28;20059;-71
2022/03/22 00:20:29;;;;;;;18.58;14.38;;;14.40;54.70;;;;;;5096976;28;20047;-71
2022/03/22 00:22:55;;;;;;;19.08;14.40;;;14.40;54.80;;;;;;5096779;28;20127;-72
2022/03/22 00:25:21;;;;;;;19.90;15.52;;;14.30;54.70;;;;;;5097057;28;20201;-72
2022/03/22 00:27:51;;;;;;;18.10;14.35;;;14.30;54.80;;;;;;5097160;28;20055;-72
2022/03/22 00:30:24;;;;;;;17.80;14.65;;;14.30;54.90;;;;;;5097685;28;20044;-72
2022/03/22 00:32:53;;;;;;;19.08;14.57;;;14.30;55.00;;;;;;5096665;28;20470;-72
2022/03/22 00:35:28;;;;;;;20.17;14.65;;;14.30;55.00;;;;;;5079389;28;20048;-72
2022/03/22 00:37:56;;;;;;;20.25;15.63;;;14.30;55.00;;;;;;5097168;28;20062;-71
2022/03/22 00:40:26;;;;;;;19.50;14.55;;;14.20;55.00;;;;;;5096852;28;20044;-72
2022/03/22 00:42:53;;;;;;;20.25;16.27;;;14.20;55.10;;;;;;5096998;28;20332;-72
2022/03/22 00:45:22;;;;;;;20.13;15.13;;;14.20;55.10;;;;;;5097524;28;21236;-71
2022/03/22 00:47:49;;;;;;;20.80;15.63;;;14.20;55.20;;;;;;5096356;28;20367;-72
2022/03/22 00:50:21;;;;;;;19.60;15.10;;;14.20;55.20;;;;;;5096386;28;20044;-72
2022/03/22 00:52:47;;;;;;;21.75;15.75;;;14.20;55.30;;;;;;5097075;28;20435;-70
2022/03/22 00:55:13;;;;;;;20.17;15.02;;;14.20;55.30;;;;;;5097180;28;20055;-72
2022/03/22 00:57:42;;;;;;;19.48;14.80;;;14.20;55.40;;;;;;5097155;28;20131;-71
2022/03/22 01:00:10;;;;;;;18.75;14.93;;;14.20;55.30;;;;;;5096154;28;20054;-71
2022/03/22 01:02:39;;;;;;;18.08;14.30;;;14.20;55.30;;;;;;5095890;28;20048;-72
2022/03/22 01:05:11;;;;;;;20.58;15.25;;;14.20;55.30;;;;;;5096141;28;20473;-72
2022/03/22 01:07:37;;;;;;;20.15;14.93;;;14.20;55.30;;;;;;5096292;28;20459;-71
2022/03/22 01:10:06;;;;;;;21.98;15.88;;;14.20;55.40;;;;;;5096113;28;20358;-73
2022/03/22 01:12:34;;;;;;;20.95;15.32;;;14.20;55.40;;;;;;5095675;28;20459;-72
2022/03/22 01:15:00;;;;;;;19.85;15.18;;;14.20;55.40;;;;;;5062058;28;20058;-72
2022/03/22 01:17:26;;;;;;;22.17;16.65;;;14.10;55.40;;;;;;5096094;28;20108;-72
2022/03/22 01:19:52;;;;;;;21.52;16.38;;;14.10;55.40;;;;;;5096200;28;20130;-72
2022/03/22 01:22:18;;;;;;;20.13;14.93;;;14.10;55.50;;;;;;5078306;28;20052;-71
2022/03/22 01:24:44;;;;;;;20.55;16.30;;;14.10;56.20;;;;;;5096101;28;20144;-72
2022/03/22 01:27:11;;;;;;;18.45;14.65;;;14.10;55.70;;;;;;5096637;28;20036;-73
2022/03/22 01:29:38;;;;;;;19.60;15.07;;;14.10;55.70;;;;;;5096164;28;20066;-72
2022/03/22 01:32:05;;;;;;;20.70;15.88;;;14.10;55.70;;;;;;5095283;28;20044;-72
2022/03/22 01:34:31;;;;;;;23.25;16.52;;;14.10;55.70;;;;;;5095845;28;20043;-72
2022/03/22 01:36:56;;;;;;;23.00;16.55;;;14.10;55.70;;;;;;5095786;28;20127;-72
2022/03/22 01:39:22;;;;;;;21.00;16.17;;;14.10;55.70;;;;;;5095942;28;20450;-72
2022/03/22 01:41:48;;;;;;;22.27;17.23;;;14.10;55.70;;;;;;5095898;28;20521;-72
2022/03/22 01:44:14;;;;;;;22.77;18.10;;;14.20;55.70;;;;;;5095955;28;20055;-72
2022/03/22 01:46:39;;;;;;;22.95;17.60;;;14.10;55.60;;;;;;5095594;28;20062;-72
2022/03/22 01:49:06;;;;;;;21.60;16.38;;;14.10;55.60;;;;;;5074102;28;20059;-73
2022/03/22 01:51:33;;;;;;;21.15;17.23;;;14.10;55.70;;;;;;5075243;28;20052;-71
2022/03/22 01:53:59;;;;;;;22.48;17.40;;;14.10;55.80;;;;;;5075446;28;20044;-73
2022/03/22 01:56:25;;;;;;;23.70;16.77;;;14.10;55.70;;;;;;5075117;28;20123;-72
2022/03/22 01:58:51;;;;;;;22.42;17.00;;;14.10;55.70;;;;;;5075539;28;20355;-71
2022/03/22 02:06:53;;;;;;;24.20;16.52;;;14.10;55.90;;;;;;5074936;28;20052;-72
2022/03/22 02:09:19;;;;;;;20.42;17.02;;;14.10;55.90;;;;;;5074920;28;20055;-72
2022/03/22 02:11:45;;;;;;;22.38;16.67;;;14.10;55.90;;;;;;5074251;28;20048;-71
2022/03/22 02:14:10;;;;;;;23.60;17.33;;;14.10;55.80;;;;;;5074661;28;20041;-71
2022/03/22 02:16:36;;;;;;;23.65;17.17;;;14.10;55.80;;;;;;5075198;28;20364;-72
2022/03/22 02:19:03;;;;;;;24.60;17.95;;;14.00;55.80;;;;;;5074137;28;20055;-73
2022/03/22 02:21:31;;;;;;;23.20;17.73;;;14.00;55.80;;;;;;5074928;28;20127;-72
2022/03/22 02:23:57;;;;;;;21.20;16.95;;;14.10;55.90;;;;;;5074709;28;20123;-72
2022/03/22 02:26:25;;;;;;;22.67;17.67;;;14.00;55.90;;;;;;5075189;28;20360;-72
2022/03/22 02:28:53;;;;;;;23.05;17.05;;;13.90;55.90;;;;;;5074492;28;20198;-72
2022/03/22 02:31:23;;;;;;;25.45;18.83;;;13.90;55.90;;;;;;5074816;28;20052;-71
2022/03/22 02:33:49;;;;;;;23.27;18.33;;;13.90;56.00;;;;;;5075656;28;20060;-72
2022/03/22 02:36:15;;;;;;;24.00;18.20;;;13.90;56.00;;;;;;5073617;28;20059;-72
2022/03/22 02:38:41;;;;;;;23.88;18.63;;;13.90;56.00;;;;;;5074780;28;20044;-72
2022/03/22 02:41:13;;;;;;;25.25;18.58;;;13.90;56.10;;;;;;5075043;28;20052;-71
2022/03/22 02:43:39;;;;;;;25.63;18.42;;;13.90;56.10;;;;;;5074891;28;20052;-72
2022/03/22 02:46:04;;;;;;;29.63;17.83;;;13.90;56.20;;;;;;5057366;28;20049;-72
2022/03/22 02:48:30;;;;;;;23.73;18.08;;;13.90;56.30;;;;;;5087362;28;20505;-71
2022/03/22 02:50:56;;;;;;;24.48;17.90;;;13.90;56.30;;;;;;5077051;28;20051;-71
2022/03/22 02:53:21;;;;;;;21.63;17.67;;;14.00;56.30;;;;;;5077572;28;20069;-71
2022/03/22 02:55:47;;;;;;;25.10;19.77;;;13.90;56.20;;;;;;5095196;28;20055;-71
2022/03/22 02:58:13;;;;;;;22.83;17.55;;;13.90;56.30;;;;;;5095633;28;20304;-72
2022/03/22 03:00:39;;;;;;;25.88;19.67;;;13.90;56.30;;;;;;5076834;28;20048;-71
2022/03/22 03:03:04;;;;;;;23.88;18.10;;;14.00;56.40;;;;;;5094979;28;20083;-72
2022/03/22 03:05:31;;;;;;;21.40;17.75;;;13.90;56.40;;;;;;5059618;28;20054;-71
2022/03/22 03:07:56;;;;;;;22.80;17.88;;;13.90;56.30;;;;;;5095078;28;20344;-71
2022/03/22 03:10:22;;;;;;;26.48;19.45;;;13.90;56.40;;;;;;5095009;28;20047;-71
2022/03/22 03:13:00;;;;;;;24.67;18.75;;;13.90;56.40;;;;;;5095012;28;20135;-72
2022/03/22 03:15:26;;;;;;;24.77;19.42;;;13.90;56.40;;;;;;5095352;28;20132;-70
2022/03/22 03:17:52;;;;;;;23.33;18.35;;;13.90;56.50;;;;;;5094546;28;20139;-72
2022/03/22 03:20:18;;;;;;;24.85;19.00;;;13.90;56.40;;;;;;5094489;28;20196;-71
2022/03/22 03:22:44;;;;;;;25.08;18.52;;;13.90;56.50;;;;;;5077005;28;20097;-72
2022/03/22 03:25:09;;;;;;;25.70;19.13;;;13.90;56.50;;;;;;5095557;28;20055;-71
2022/03/22 03:27:36;;;;;;;24.80;19.42;;;13.90;56.50;;;;;;5098410;28;20040;-71
2022/03/22 03:30:04;;;;;;;26.23;18.60;;;13.90;56.50;;;;;;5098193;28;20075;-71
2022/03/22 03:32:30;;;;;;;25.42;18.88;;;13.90;56.50;;;;;;5080035;28;20052;-71
2022/03/22 03:34:56;;;;;;;24.27;17.95;;;13.90;56.60;;;;;;5098351;28;20044;-72
2022/03/22 03:37:27;;;;;;;24.70;19.20;;;13.90;56.60;;;;;;5097809;28;20133;-71
2022/03/22 03:39:53;;;;;;;25.23;19.38;;;13.90;56.70;;;;;;5098693;28;20044;-71
2022/03/22 03:42:19;;;;;;;25.42;19.38;;;13.90;56.70;;;;;;5080158;28;20459;-72
2022/03/22 03:47:29;;;;;;;24.73;19.27;;;13.90;56.70;;;;;;5097868;28;20048;-71
2022/03/22 03:50:01;;;;;;;26.08;19.42;;;13.80;56.70;;;;;;5097866;28;20356;-71
2022/03/22 03:52:33;;;;;;;24.30;18.95;;;13.80;56.70;;;;;;5097791;28;20064;-72
2022/03/22 03:55:00;;;;;;;28.58;20.80;;;13.80;56.80;;;;;;5097623;28;20125;-73
2022/03/22 03:57:27;;;;;;;27.10;20.60;;;13.80;56.70;;;;;;5098093;28;20139;-72
2022/03/22 03:59:54;;;;;;;23.58;18.48;;;13.80;56.80;;;;;;5097882;28;20040;-72
2022/03/22 04:02:21;;;;;;;27.42;19.77;;;13.80;56.90;;;;;;5096450;28;20070;-71
2022/03/22 04:04:51;;;;;;;27.35;20.73;;;13.80;56.90;;;;;;5097230;28;20048;-72
2022/03/22 04:07:18;;;;;;;26.05;18.65;;;13.80;56.90;;;;;;5097646;28;20123;-71
2022/03/22 04:09:44;;;;;;;25.52;20.20;;;13.80;56.90;;;;;;5097448;28;20064;-71
2022/03/22 04:12:10;;;;;;;23.90;19.35;;;13.90;56.90;;;;;;5097296;28;20060;-71
2022/03/22 04:14:36;;;;;;;25.77;19.67;;;13.80;56.80;;;;;;5097354;28;20048;-71
2022/03/22 04:17:02;;;;;;;24.67;19.75;;;13.90;56.90;;;;;;5079469;28;20360;-72
2022/03/22 04:19:28;;;;;;;25.15;19.15;;;13.90;56.90;;;;;;5097404;28;20101;-73
2022/03/22 04:21:55;;;;;;;26.45;20.05;;;13.80;56.80;;;;;;5097368;28;20044;-71
2022/03/22 04:24:21;;;;;;;25.58;20.40;;;13.90;56.90;;;;;;5097309;28;20052;-71
2022/03/22 04:26:47;;;;;;;25.95;19.75;;;13.80;56.80;;;;;;5096986;28;20058;-71
2022/03/22 04:34:45;;;;;;;26.38;21.02;;;13.70;56.90;;;;;;5097119;28;20048;-72
2022/03/22 04:37:13;;;;;;;25.75;20.10;;;13.70;57.00;;;;;;5096213;28;20055;-72
2022/03/22 04:39:40;;;;;;;28.15;20.67;;;13.70;57.10;;;;;;5096782;28;20070;-71
2022/03/22 04:42:06;;;;;;;23.35;19.05;;;13.70;57.00;;;;;;5096982;28;20494;-72
2022/03/22 04:44:32;;;;;;;23.05;18.88;;;13.70;57.00;;;;;;5097502;28;20036;-72
2022/03/22 04:46:58;;;;;;;26.65;20.30;;;13.70;57.10;;;;;;5096934;28;20043;-72
2022/03/22 04:49:28;;;;;;;27.08;20.13;;;13.60;57.10;;;;;;5096192;28;20048;-72
2022/03/22 04:57:23;;;;;;;27.02;19.88;;;13.70;57.10;;;;;;5096794;28;20056;-72
2022/03/22 04:59:49;;;;;;;24.83;19.35;;;13.70;56.80;;;;;;5096685;28;20336;-72
2022/03/22 05:02:15;;;;;;;25.13;20.83;;;13.60;56.90;;;;;;5096089;28;20152;-72
2022/03/22 05:04:42;;;;;;;25.63;20.02;;;13.60;57.10;;;;;;5096226;28;20459;-73
2022/03/22 05:07:07;;;;;;;25.20;18.98;;;13.60;57.10;;;;;;5096050;28;20455;-72
2022/03/22 05:09:33;;;;;;;25.77;19.30;;;13.60;57.10;;;;;;5096863;28;20109;-71
2022/03/22 05:12:00;;;;;;;25.58;19.00;;;13.60;57.10;;;;;;5096370;28;20052;-71
2022/03/22 05:14:26;;;;;;;26.30;19.85;;;13.70;57.20;;;;;;5096236;28;20106;-71
2022/03/22 05:16:52;;;;;;;26.83;19.88;;;13.70;57.20;;;;;;5096555;28;20036;-71
2022/03/22 05:19:18;;;;;;;29.00;21.25;;;13.70;56.90;;;;;;5095006;28;20167;-76
2022/03/22 05:21:45;;;;;;;33.40;21.13;;;13.70;56.70;;;;;;5103047;28;20075;-74
2022/03/22 05:24:11;;;;;;;28.90;23.17;;;13.70;56.50;;;;;;5085853;28;20052;-78
2022/03/22 05:26:37;;;;;;;33.88;23.45;;;13.70;56.10;;;;;;5091457;28;20051;-79
2022/03/22 05:29:04;;;;;;;29.20;23.00;;;13.70;55.60;;;;;;5080897;28;20119;-80
2022/03/22 05:31:34;;;;;;;28.92;23.15;;;13.70;55.30;;;;;;5095981;28;20054;-76
2022/03/22 05:34:00;;;;;;;28.98;23.50;;;13.70;55.10;;;;;;5107251;28;20072;-78
2022/03/22 05:36:27;;;;;;;31.20;23.75;;;13.70;54.60;;;;;;5107637;28;20340;-74
2022/03/22 05:38:53;;;;;;;36.03;24.17;;;13.70;54.80;;;;;;5099711;28;20048;-73
2022/03/22 05:41:20;;;;;;;28.13;21.45;;;13.70;55.10;;;;;;5094263;28;20123;-76
2022/03/22 05:43:47;;;;;;;27.73;21.25;;;13.60;55.20;;;;;;5067174;28;20047;-75
2022/03/22 05:46:17;;;;;;;27.33;21.27;;;13.70;55.10;;;;;;5104975;28;20039;-76
2022/03/22 05:48:43;;;;;;;26.58;19.17;;;13.80;55.10;;;;;;5108635;28;20463;-75
2022/03/22 05:51:09;;;;;;;26.63;19.10;;;14.00;55.10;;;;;;5098408;28;20052;-75
2022/03/22 05:53:35;;;;;;;23.80;16.85;;;14.30;55.00;;;;;;5075108;28;20113;-75
2022/03/22 05:56:00;;;;;;;23.13;16.90;;;14.60;55.10;;;;;;5092119;28;20054;-71
2022/03/22 05:58:26;;;;;;;24.17;15.98;;;14.80;55.30;;;;;;5095488;28;20379;-73
2022/03/22 06:00:52;;;;;;;25.75;15.88;;;15.10;55.30;;;;;;5095005;28;20044;-73
2022/03/22 06:03:18;;;;;;;24.50;14.35;;;15.00;55.50;;;;;;5091797;28;20110;-74
2022/03/22 06:05:44;;;;;;;22.35;14.23;;;15.10;55.90;;;;;;5094887;28;20048;-77
2022/03/22 06:08:09;;;;;;;25.50;14.43;;;15.20;56.00;;;;;;5095623;28;20351;-75
2022/03/22 06:10:35;;;;;;;23.70;14.95;;;15.30;56.10;;;;;;5095322;28;20036;-74
2022/03/22 06:13:01;;;;;;;28.05;14.18;;;15.40;56.20;;;;;;5095731;28;20059;-72
2022/03/22 06:15:29;;;;;;;19.92;13.63;;;15.60;56.60;;;;;;5095081;28;20048;-73
2022/03/22 06:18:02;;;;;;;20.95;12.75;;;15.60;56.70;;;;;;5078069;28;20051;-75
2022/03/22 06:20:35;;;;;;;22.60;12.45;;;15.70;56.80;;;;;;5095325;28;20040;-73
2022/03/22 06:23:04;;;;;;;24.17;12.68;;;15.80;56.70;;;;;;5095458;28;20044;-76
2022/03/22 06:25:31;;;;;;;28.25;12.93;;;15.80;56.90;;;;;;5094343;28;20048;-76
2022/03/22 06:27:58;;;;;;;22.17;11.50;;;15.90;57.30;;;;;;5094994;28;20079;-76
2022/03/22 06:30:25;;;;;;;21.02;11.52;;;16.00;57.50;;;;;;5095544;28;20075;-76
2022/03/22 06:32:56;;;;;;;15.13;10.38;;;16.00;57.40;;;;;;5095102;28;20118;-75
2022/03/22 06:35:23;;;;;;;23.98;11.50;;;16.20;57.40;;;;;;5077507;28;20048;-74
2022/03/22 06:37:50;;;;;;;16.73;10.18;;;16.30;57.30;;;;;;5095171;28;20052;-75
2022/03/22 06:40:18;;;;;;;21.23;9.80;;;16.40;57.10;;;;;;5094769;28;20052;-74
2022/03/22 06:42:45;;;;;;;21.92;9.63;;;16.50;57.10;;;;;;5094655;28;20193;-75
2022/03/22 06:45:12;;;;;;;18.27;9.82;;;16.60;57.00;;;;;;5076922;28;20108;-77
2022/03/22 06:47:39;;;;;;;16.20;8.85;;;16.70;56.90;;;;;;5076634;28;20081;-76
2022/03/22 06:50:08;;;;;;;15.50;8.70;;;16.80;56.70;;;;;;5095678;28;20144;-75
2022/03/22 06:52:33;;;;;;;18.00;9.43;;;16.90;56.60;;;;;;5095425;28;20048;-76
2022/03/22 06:54:59;;;;;;;21.35;8.73;;;17.00;56.40;;;;;;5077293;28;20059;-77
2022/03/22 06:57:28;;;;;;;19.95;9.98;;;17.00;56.30;;;;;;5094127;28;20036;-78
2022/03/22 06:59:55;;;;;;;18.88;10.05;;;17.10;56.10;;;;;;5097085;28;20044;-77
2022/03/22 07:02:21;;;;;;;12.07;9.18;;;17.10;55.90;;;;;;5080398;28;20039;-76
2022/03/22 07:04:48;;;;;;;19.75;9.70;;;17.10;55.90;;;;;;5098585;28;20054;-75
2022/03/22 07:07:15;;;;;;;20.73;10.20;;;17.10;56.00;;;;;;5098436;28;20044;-75
2022/03/22 07:09:42;;;;;;;22.15;9.30;;;17.10;55.90;;;;;;5098337;28;20047;-75
2022/03/22 07:12:08;;;;;;;18.55;9.90;;;17.10;56.00;;;;;;5098585;28;20443;-75
2022/03/22 07:14:36;;;;;;;22.60;10.93;;;17.10;55.90;;;;;;5080497;28;20398;-74
2022/03/22 07:17:01;;;;;;;17.95;10.45;;;17.10;55.50;;;;;;5098824;28;20085;-73
2022/03/22 07:19:28;;;;;;;19.88;10.07;;;17.00;55.40;;;;;;5098355;28;20411;-74
2022/03/22 07:21:57;;;;;;;18.80;10.18;;;17.00;55.30;;;;;;5098220;28;20082;-74
2022/03/22 07:24:23;;;;;;;16.15;10.25;;;16.90;55.20;;;;;;5098977;28;20060;-74
2022/03/22 07:26:49;;;;;;;19.85;11.07;;;16.90;55.20;;;;;;5098246;28;20394;-75
2022/03/22 07:29:15;;;;;;;16.15;10.43;;;16.80;55.20;;;;;;5098412;28;20052;-76
2022/03/22 07:31:41;;;;;;;16.17;10.25;;;16.80;55.20;;;;;;5097661;28;20080;-74
2022/03/22 07:34:11;;;;;;;15.65;11.00;;;16.70;55.20;;;;;;5097640;28;20056;-73
2022/03/22 07:36:39;;;;;;;15.60;10.90;;;16.60;55.20;;;;;;5097616;28;20048;-74
2022/03/22 07:39:06;;;;;;;16.33;11.77;;;16.60;55.30;;;;;;5096913;28;20075;-75
2022/03/22 07:41:34;;;;;;;19.48;12.82;;;16.60;55.20;;;;;;5079880;28;20348;-74
2022/03/22 07:44:01;;;;;;;17.15;11.95;;;16.50;55.50;;;;;;5098028;28;20044;-76
2022/03/22 07:46:27;;;;;;;17.05;12.07;;;16.40;55.70;;;;;;5097844;28;20048;-74
2022/03/22 07:48:53;;;;;;;16.45;12.00;;;16.40;56.00;;;;;;5079727;28;20056;-75
2022/03/22 07:54:04;;;;;;;18.02;10.85;;;16.40;56.30;;;;;;5099245;28;20083;-76
2022/03/22 07:56:32;;;;;;;20.83;12.25;;;16.40;56.50;;;;;;5112161;28;20123;-75
2022/03/22 07:59:01;;;;;;;20.73;13.48;;;16.40;56.70;;;;;;5097232;28;20122;-77
2022/03/22 08:01:27;;;;;;;23.33;15.55;;;16.40;56.70;;;;;;5110689;28;20047;-77
2022/03/22 08:03:53;;;;;;;21.55;14.93;;;16.40;56.50;;;;;;5100262;28;20062;-77
2022/03/22 08:06:18;;;;;;;25.33;14.43;;;16.40;56.40;;;;;;5113544;28;20044;-75
2022/03/22 08:08:45;;;;;;;21.17;14.93;;;16.40;56.50;;;;;;5086898;28;20043;-76
2022/03/22 08:11:11;;;;;;;21.92;14.38;;;16.40;56.70;;;;;;5087486;28;20087;-76
2022/03/22 08:13:38;;;;;;;18.88;13.93;;;16.40;56.80;;;;;;5102087;28;20054;-75
2022/03/22 08:16:05;;;;;;;21.08;14.48;;;16.40;56.90;;;;;;5090641;28;20375;-73
2022/03/22 08:18:31;;;;;;;20.95;13.23;;;16.30;57.00;;;;;;5096090;28;20123;-74
2022/03/22 08:20:57;;;;;;;20.23;13.63;;;16.40;57.20;;;;;;5096767;28;20083;-73
2022/03/22 08:23:22;;;;;;;16.45;12.73;;;16.30;57.30;;;;;;5097110;28;20123;-73
2022/03/22 08:25:49;;;;;;;18.40;12.05;;;16.30;57.60;;;;;;5097354;28;20048;-73
2022/03/22 08:28:15;;;;;;;16.60;13.07;;;16.30;57.80;;;;;;5096609;28;20052;-74
2022/03/22 08:30:42;;;;;;;17.80;13.18;;;16.30;57.80;;;;;;5097298;28;20055;-72
2022/03/22 08:33:10;;;;;;;17.77;12.65;;;16.20;57.90;;;;;;5075948;28;20052;-73
2022/03/22 08:35:40;;;;;;;24.45;12.88;;;16.20;58.10;;;;;;5096430;28;20036;-74
2022/03/22 08:38:06;;;;;;;16.77;12.23;;;16.20;59.10;;;;;;5097642;28;20048;-73
2022/03/22 08:40:32;;;;;;;21.70;13.40;;;16.20;59.60;;;;;;5078825;28;20189;-74
2022/03/22 08:42:58;;;;;;;19.90;12.48;;;16.20;60.20;;;;;;5096124;28;20090;-72
2022/03/22 08:45:26;;;;;;;24.70;13.13;;;16.20;60.60;;;;;;5078104;28;20054;-73
2022/03/22 08:47:53;;;;;;;20.83;12.57;;;16.20;61.60;;;;;;5096744;28;20209;-73
2022/03/22 08:50:21;;;;;;;22.63;13.20;;;16.20;62.70;;;;;;5078563;28;20047;-79
2022/03/22 08:52:48;;;;;;;23.25;12.65;;;16.20;62.70;;;;;;5077991;28;20040;-71
2022/03/22 08:55:16;;;;;;;23.15;14.05;;;16.20;62.50;;;;;;5093586;28;20060;-73
2022/03/22 08:57:42;;;;;;;25.13;14.27;;;16.20;66.00;;;;;;5096382;28;20032;-73
2022/03/22 09:00:11;;;;;;;25.38;16.67;;;16.20;65.40;;;;;;5096136;28;20104;-76
2022/03/22 09:02:38;;;;;;;28.15;17.02;;;16.20;65.30;;;;;;5096231;28;20132;-73
2022/03/22 09:07:52;;;;;;;32.55;21.95;;;16.20;64.90;;;;;;5095795;28;20386;-75
2022/03/22 09:10:20;;;;;;;28.50;22.77;;;16.20;64.20;;;;;;5095720;28;20478;-74
2022/03/22 09:12:48;;;;;;;28.00;19.58;;;16.10;63.20;;;;;;5095434;28;20119;-74
2022/03/22 09:15:22;;;;;;;25.30;19.27;;;16.10;61.80;;;;;;5095741;28;20044;-74
2022/03/22 09:17:49;;;;;;;27.40;20.02;;;15.80;60.00;;;;;;5095979;28;20043;-74
2022/03/22 09:20:15;;;;;;;31.10;19.65;;;15.60;60.40;;;;;;5095501;28;20040;-79
2022/03/22 09:22:43;;;;;;;27.90;19.02;;;15.50;60.70;;;;;;5074537;28;20052;-74
2022/03/22 09:25:12;;;;;;;26.88;19.58;;;15.40;60.70;;;;;;5090838;28;20075;-80
2022/03/22 09:27:43;;;;;;;35.33;21.13;;;15.50;60.70;;;;;;5095755;28;20040;-75
2022/03/22 09:30:11;;;;;;;28.33;20.92;;;15.40;60.50;;;;;;5095489;28;20459;-75
2022/03/22 09:32:38;;;;;;;24.00;18.55;;;15.40;60.60;;;;;;5096179;28;20048;-75
2022/03/22 09:35:07;;;;;;;29.08;18.90;;;15.40;60.60;;;;;;5095567;28;20395;-76
2022/03/22 09:37:33;;;;;;;26.02;19.20;;;15.40;60.40;;;;;;5092442;28;20056;-74
2022/03/22 09:39:59;;;;;;;31.25;20.08;;;15.40;60.70;;;;;;5095394;28;20109;-73
2022/03/22 09:42:27;;;;;;;22.92;18.55;;;15.40;61.10;;;;;;5077767;28;20048;-75
2022/03/22 09:44:53;;;;;;;30.90;19.50;;;15.30;61.10;;;;;;5077775;28;20134;-73
2022/03/22 09:47:19;;;;;;;25.48;16.70;;;15.30;61.60;;;;;;5094791;28;20047;-79
2022/03/22 09:49:45;;;;;;;24.85;18.20;;;15.40;61.50;;;;;;5077212;28;20075;-76
2022/03/22 09:52:14;;;;;;;23.23;16.98;;;15.30;61.30;;;;;;5095354;28;20108;-76
2022/03/22 09:54:40;;;;;;;26.45;17.58;;;15.30;61.50;;;;;;5095365;28;20109;-76
2022/03/22 09:57:07;;;;;;;28.17;17.08;;;15.50;62.10;;;;;;5095655;28;20405;-78
2022/03/22 09:59:34;;;;;;;26.60;17.67;;;15.60;62.00;;;;;;5095372;28;20055;-78
2022/03/22 10:02:01;;;;;;;29.85;20.70;;;15.60;61.70;;;;;;5094790;28;20490;-79
2022/03/22 10:04:36;;;;;;;34.35;22.15;;;15.70;61.40;;;;;;5095167;28;20483;-77
2022/03/22 10:07:05;;;;;;;33.38;21.73;;;15.80;61.20;;;;;;5094627;28;20093;-81
2022/03/22 10:09:39;;;;;;;34.55;21.67;;;15.90;61.10;;;;;;5060852;28;20105;-78
2022/03/22 10:12:07;;;;;;;32.08;22.58;;;15.90;60.70;;;;;;5078042;28;20052;-77
2022/03/22 10:14:41;;;;;;;36.15;21.98;;;16.00;60.50;;;;;;5060927;28;20051;-81
2022/03/22 10:17:14;;;;;;;29.38;23.38;;;16.00;60.20;;;;;;5095141;28;20036;-78
2022/03/22 10:19:42;;;;;;;37.17;25.85;;;16.00;60.20;;;;;;5095036;28;20057;-78
2022/03/22 10:22:11;;;;;;;37.50;25.52;;;16.00;60.20;;;;;;5095306;28;20036;-74
2022/03/22 10:24:51;;;;;;;37.03;25.67;;;16.00;60.10;;;;;;5095050;28;20044;-75
2022/03/22 10:27:32;;;;;;;35.13;24.92;;;16.00;60.30;;;;;;5094994;28;20101;-75
2022/03/22 10:30:01;;;;;;;34.85;24.40;;;16.00;60.80;;;;;;5091420;28;20447;-76
2022/03/22 10:32:32;;;;;;;37.03;25.02;;;16.00;61.10;;;;;;5095108;28;20117;-74
2022/03/22 10:35:20;;;;;;;30.52;21.58;;;16.10;61.30;;;;;;5097743;28;20332;-75
2022/03/22 10:37:48;;;;;;;32.85;21.77;;;16.10;61.90;;;;;;5099374;28;20127;-77
2022/03/22 10:40:35;;;;;;;36.20;21.92;;;16.10;62.30;;;;;;5081301;28;20059;-73
2022/03/22 10:43:06;;;;;;;31.20;20.52;;;16.10;60.90;;;;;;5099267;28;20089;-72
2022/03/22 10:45:44;;;;;;;26.50;19.35;;;16.10;61.10;;;;;;5099112;28;20122;-73
2022/03/22 10:48:22;;;;;;;28.98;21.30;;;16.10;60.90;;;;;;5080529;28;20515;-75
2022/03/22 10:50:49;;;;;;;27.08;20.20;;;16.10;60.80;;;;;;5096514;28;20431;-76
2022/03/22 10:53:20;;;;;;;28.42;21.63;;;16.00;60.50;;;;;;5080333;28;20113;-75
2022/03/22 10:55:47;;;;;;;35.00;25.35;;;16.00;60.40;;;;;;5098903;28;20425;-75
2022/03/22 10:58:15;;;;;;;27.45;21.27;;;16.00;61.00;;;;;;5089302;28;20418;-78
2022/03/22 11:00:45;;;;;;;31.13;22.08;;;16.00;61.00;;;;;;5096005;28;20051;-73
2022/03/22 11:03:12;;;;;;;33.33;25.50;;;16.00;61.40;;;;;;5079535;28;20512;-74
2022/03/22 11:05:40;;;;;;;34.65;25.05;;;16.00;61.70;;;;;;5060466;28;20110;-74
2022/03/22 11:08:07;;;;;;;27.70;21.45;;;16.00;61.00;;;;;;5078220;28;20044;-73
2022/03/22 11:10:32;;;;;;;27.67;21.00;;;15.90;61.00;;;;;;5044061;28;20048;-75
2022/03/22 11:12:59;;;;;;;31.10;21.23;;;15.80;61.10;;;;;;5078514;28;20056;-73
2022/03/22 11:15:35;;;;;;;26.92;19.98;;;15.80;61.20;;;;;;5075337;28;20468;-73
2022/03/22 11:18:02;;;;;;;29.80;20.25;;;15.70;61.20;;;;;;5060848;28;20053;-75
2022/03/22 11:20:28;;;;;;;27.10;20.40;;;15.60;61.30;;;;;;5077837;28;20045;-73
2022/03/22 11:22:58;;;;;;;29.77;20.85;;;15.60;61.40;;;;;;5075002;28;20048;-75
2022/03/22 11:25:36;;;;;;;24.35;19.05;;;15.60;61.40;;;;;;5078200;28;20460;-74
2022/03/22 11:28:09;;;;;;;31.17;20.17;;;15.60;61.50;;;;;;5087830;28;20404;-78
2022/03/22 11:30:37;;;;;;;28.20;21.38;;;15.60;61.60;;;;;;5095117;28;20332;-75
2022/03/22 11:35:57;;;;;;;30.83;20.98;;;15.50;60.70;;;;;;5098199;28;20135;-73
2022/03/22 11:38:49;;;;;;;28.77;19.58;;;15.60;60.60;;;;;;5098116;28;20344;-75
2022/03/22 11:44:36;;;;;;;30.92;20.48;;;15.50;60.70;;;;;;5098175;28;20060;-74
2022/03/22 11:47:08;;;;;;;31.35;20.00;;;15.50;61.20;;;;;;5079313;28;20375;-74
2022/03/22 11:49:53;;;;;;;31.75;20.38;;;15.50;60.80;;;;;;5097822;28;20087;-73
2022/03/22 11:52:24;;;;;;;32.15;21.63;;;15.60;60.40;;;;;;5098578;28;20052;-70
2022/03/22 11:54:57;;;;;;;30.42;21.02;;;15.60;60.10;;;;;;5097526;28;20361;-74
2022/03/22 11:57:23;;;;;;;;;;;15.70;60.00;;;;;;5098019;28;20153;-74
2022/03/22 11:59:52;;;;;;;26.85;19.92;;;15.60;60.30;;;;;;5080164;28;19923;-74
2022/03/22 12:02:37;;;;;;;27.90;19.33;;;15.60;60.60;;;;;;5062824;28;20109;-75
2022/03/22 12:05:03;;;;;;;32.78;20.60;;;15.60;60.70;;;;;;5080048;28;20450;-74
2022/03/22 12:07:35;;;;;;;27.42;19.83;;;15.60;61.00;;;;;;5097620;28;20074;-74
2022/03/22 12:10:12;;;;;;;27.45;19.80;;;15.60;61.20;;;;;;5080161;28;20050;-76
2022/03/22 12:12:40;;;;;;;29.23;18.48;;;15.60;61.30;;;;;;5097536;28;20055;-76
2022/03/22 12:15:09;;;;;;;29.55;20.02;;;15.60;61.40;;;;;;5094129;28;20105;-76
2022/03/22 12:17:37;;;;;;;34.97;23.85;;;15.60;61.80;;;;;;5086171;28;20041;-80
2022/03/22 12:20:30;;;;;;;32.20;22.27;;;15.60;62.50;;;;;;5058374;28;20036;-79
2022/03/22 12:23:00;;;;;;;28.73;21.30;;;15.70;62.10;;;;;;5051868;28;20052;-81
2022/03/22 12:25:33;;;;;;;30.83;22.83;;;15.70;62.10;;;;;;5075753;28;20718;-81
2022/03/22 12:28:07;;;;;;;36.30;24.33;;;15.80;60.90;;;;;;5087845;28;20240;-81
2022/03/22 12:30:39;;;;;;;39.60;26.85;;;15.90;60.30;;;;;;5079152;28;20044;-73
2022/03/22 12:33:10;;;;;;;35.88;26.10;;;15.90;60.60;;;;;;5078897;28;20415;-76
2022/03/22 12:35:36;;;;;;;38.38;27.02;;;15.90;60.90;;;;;;5096923;28;20032;-73
2022/03/22 12:38:33;;;;;;;30.48;23.70;;;15.90;61.10;;;;;;5096840;28;20109;-81
2022/03/22 12:40:58;;;;;;;29.33;24.02;;;15.80;60.90;;;;;;5076484;28;20039;-83
2022/03/22 12:43:25;;;;;;;30.55;22.35;;;15.90;61.00;;;;;;5096512;28;20486;-82
2022/03/22 12:45:51;;;;;;;34.55;25.33;;;15.90;60.20;;;;;;5078923;28;20359;-80
2022/03/22 12:48:18;;;;;;;30.85;22.50;;;16.00;59.70;;;;;;5096187;28;20062;-79
2022/03/22 12:50:44;;;;;;;32.15;24.33;;;16.00;60.00;;;;;;5061745;28;20048;-78
2022/03/22 12:53:10;;;;;;;29.20;21.73;;;16.00;60.10;;;;;;5062033;28;20036;-80
2022/03/22 12:55:42;;;;;;;31.30;20.85;;;16.00;59.50;;;;;;5095824;28;20031;-83
2022/03/22 12:58:08;;;;;;;24.70;18.48;;;16.00;59.50;;;;;;5061850;28;20063;-73
2022/03/22 13:00:38;;;;;;;31.05;19.83;;;16.00;59.50;;;;;;5096250;28;20124;-72
2022/03/22 13:03:10;;;;;;;26.13;19.55;;;16.00;60.00;;;;;;5078749;28;20083;-73